0VA6 weather

Mc Guire Va Medical Center Pad Heliport
Richmond, Virginia, United States

Public forecast

Using degrees Fahrenheit for public forecast. Weather courtesy of forecast.io.

METAR (pilot weather report)

Closest report is Chesterfield County Airport, 6.2 nm (11.4 km) SSW. Retrieved 2019/03/21 03:32 UTC (0 seconds ago):

KFCI 210332Z AUTO 36004KT 5SM -RA BR BKN004 BKN008 OVC026 07/06 A3017 RMK AO2 P0001

TAF (pilot weather forecast)

Forecast is more than 12 hours old.

Closest forecast is Richmond International Airport, 6.8 nm (12.6 km) E. Retrieved 2019/03/20 00:36 UTC (1 day ago):

TAF KRIC 202334Z 2100/2124 08006KT 6SM -RA OVC040 FM210200 06005KT 4SM -RA BR OVC015 FM210500 06005KT 3SM -RA BR OVC007 FM211200 10009KT 4SM -RA BR OVC007 FM211800 29005KT 6SM -RA OVC015